Time;durP1;ratioP1;P1;durP2;ratioP2;P2;SDS_P1;SDS_P2;PMS_P1;PMS_P2;Temp;Humidity;BMP_temperature;BMP_pressure;BME280_temperature;BME280_humidity;BME280_pressure;Samples;Min_cycle;Max_cycle;Signal;HPM_P1;HPM_P2
2023/02/28 00:01:00;;;;;;;15.07;9.15;;;;;;;1.69;59.87;101516.38;5008386;28;21233;-72
2023/02/28 00:03:26;;;;;;;12.32;7.82;;;;;;;1.64;60.14;101498.00;5006175;28;20037;-72
2023/02/28 00:05:51;;;;;;;15.95;8.77;;;;;;;1.75;59.94;101522.34;5008619;28;20038;-72
2023/02/28 00:08:17;;;;;;;12.63;8.43;;;;;;;1.73;59.81;101523.28;5007646;28;20042;-72
2023/02/28 00:10:42;;;;;;;15.02;7.97;;;;;;;1.65;59.93;101510.31;5008740;28;20041;-72
2023/02/28 00:13:07;;;;;;;12.75;7.93;;;;;;;1.71;59.98;101525.97;5008815;28;20041;-72
2023/02/28 00:15:33;;;;;;;14.27;8.55;;;;;;;1.72;59.57;101529.50;5008936;28;20021;-72
2023/02/28 00:17:59;;;;;;;12.23;7.70;;;;;;;1.71;59.47;101523.34;5008899;28;20033;-72
2023/02/28 00:20:25;;;;;;;12.93;8.13;;;;;;;1.67;59.57;101519.06;5009149;28;20535;-72
2023/02/28 00:22:52;;;;;;;16.40;8.93;;;;;;;1.71;59.71;101531.28;5008456;28;20050;-72
2023/02/28 00:25:21;;;;;;;12.60;7.82;;;;;;;1.68;59.49;101523.44;5007644;28;20091;-73
2023/02/28 00:27:48;;;;;;;17.35;9.13;;;;;;;1.74;59.51;101538.25;5006307;28;20128;-72
2023/02/28 00:30:17;;;;;;;16.80;9.00;;;;;;;1.71;59.57;101533.91;5008485;28;20032;-72
2023/02/28 00:32:43;;;;;;;13.68;7.90;;;;;;;1.70;59.64;101536.59;5003874;28;20447;-73
2023/02/28 00:35:09;;;;;;;12.82;8.45;;;;;;;1.71;59.52;101543.66;5008199;28;20034;-72
2023/02/28 00:37:34;;;;;;;15.75;8.32;;;;;;;1.60;59.87;101521.94;5010729;28;20037;-72
2023/02/28 00:40:00;;;;;;;16.30;8.90;;;;;;;1.68;59.74;101538.44;5008282;28;20080;-73
2023/02/28 00:42:26;;;;;;;15.35;8.75;;;;;;;1.70;59.65;101549.81;5008578;28;20524;-72
2023/02/28 00:44:51;;;;;;;15.98;8.70;;;;;;;1.68;59.65;101541.94;5007678;28;20351;-72
2023/02/28 00:47:17;;;;;;;13.27;7.57;;;;;;;1.69;59.49;101535.75;5008452;28;20056;-71
2023/02/28 00:49:42;;;;;;;14.52;8.20;;;;;;;1.67;59.85;101540.22;5007508;28;20026;-72
2023/02/28 00:52:07;;;;;;;13.52;7.60;;;;;;;1.74;59.71;101547.03;5009697;28;20092;-71
2023/02/28 00:54:33;;;;;;;14.48;7.43;;;;;;;1.70;59.76;101536.59;5013207;28;20029;-72
2023/02/28 00:56:59;;;;;;;14.52;7.95;;;;;;;1.66;60.11;101529.69;5007984;28;20025;-73
2023/02/28 00:59:25;;;;;;;13.93;8.15;;;;;;;1.71;59.76;101533.91;5007810;28;20435;-72
2023/02/28 01:01:51;;;;;;;13.35;7.93;;;;;;;1.68;59.77;101535.81;5007401;28;20030;-70
2023/02/28 01:04:16;;;;;;;14.90;7.88;;;;;;;1.61;60.02;101529.00;5006072;28;20459;-71
2023/02/28 01:06:42;;;;;;;15.60;7.82;;;;;;;1.60;59.68;101517.53;5007408;28;20038;-71
2023/02/28 01:09:08;;;;;;;13.27;9.23;;;;;;;1.70;59.76;101537.47;5007932;28;20037;-72
2023/02/28 01:11:34;;;;;;;14.65;7.93;;;;;;;1.64;59.76;101519.16;5003805;28;20061;-66
2023/02/28 01:14:00;;;;;;;16.33;8.30;;;;;;;1.70;60.45;101531.31;5007334;28;20084;-66
2023/02/28 01:16:26;;;;;;;12.57;7.47;;;;;;;1.77;59.92;101540.78;5006881;28;20030;-66
2023/02/28 01:18:51;;;;;;;14.55;8.48;;;;;;;1.72;59.92;101537.44;5006294;28;20454;-66
2023/02/28 01:21:19;;;;;;;15.75;8.00;;;;;;;1.64;59.72;101528.88;5006727;28;20033;-66
2023/02/28 01:23:45;;;;;;;15.05;8.50;;;;;;;1.66;59.93;101529.69;5006281;28;20029;-65
2023/02/28 01:26:14;;;;;;;14.95;8.30;;;;;;;1.68;59.87;101531.38;5005270;28;20036;-65
2023/02/28 01:28:40;;;;;;;12.85;7.80;;;;;;;1.55;60.25;101516.81;5005141;28;20045;-66
2023/02/28 01:31:06;;;;;;;12.30;7.78;;;;;;;1.68;59.83;101534.00;5006352;28;20025;-66
2023/02/28 01:33:32;;;;;;;14.55;7.53;;;;;;;1.59;59.87;101523.75;5005393;28;20068;-66
2023/02/28 01:36:20;;;;;;;13.57;7.78;;;;;;;1.69;59.82;101542.81;5006473;28;20377;-66
2023/02/28 01:38:46;;;;;;;13.02;7.43;;;;;;;1.72;60.25;101542.72;5003664;28;20066;-66
2023/02/28 01:41:21;;;;;;;15.07;7.75;;;;;;;1.68;60.01;101530.53;5006410;28;20061;-66
2023/02/28 01:43:47;;;;;;;15.43;7.78;;;;;;;1.70;59.67;101536.59;5004530;28;20038;-66
2023/02/28 01:46:13;;;;;;;14.38;7.45;;;;;;;1.62;60.37;101533.34;5006051;28;20036;-65
2023/02/28 01:48:43;;;;;;;15.13;8.25;;;;;;;1.72;59.88;101545.38;5004638;28;20030;-65
2023/02/28 01:51:14;;;;;;;11.02;7.63;;;;;;;1.60;59.97;101525.47;5006403;28;20439;-66
2023/02/28 01:53:47;;;;;;;12.82;7.75;;;;;;;1.59;60.39;101526.41;5005113;28;20022;-65
2023/02/28 01:56:20;;;;;;;12.98;7.55;;;;;;;1.72;60.27;101548.00;5006353;28;20114;-65
2023/02/28 01:58:51;;;;;;;15.07;6.85;;;;;;;1.67;59.82;101539.34;5006199;28;20384;-65
2023/02/28 02:01:21;;;;;;;12.55;7.47;;;;;;;1.72;60.39;101548.88;5005426;28;20137;-66
2023/02/28 02:04:02;;;;;;;13.90;7.45;;;;;;;1.71;59.90;101547.13;5005468;28;20461;-65
2023/02/28 02:06:44;;;;;;;11.57;7.22;;;;;;;1.62;60.06;101531.56;5005591;28;20368;-66
2023/02/28 02:09:10;;;;;;;12.90;7.57;;;;;;;1.67;60.06;101536.69;5004715;28;20030;-66
2023/02/28 02:11:36;;;;;;;16.25;7.90;;;;;;;1.55;59.90;101511.53;5005439;28;20026;-65
2023/02/28 02:14:31;;;;;;;14.93;8.20;;;;;;;1.71;60.66;101543.66;5007299;28;20025;-66
2023/02/28 02:17:10;;;;;;;12.20;7.68;;;;;;;1.73;60.44;101541.78;5004452;28;20026;-66
2023/02/28 02:19:47;;;;;;;13.25;7.47;;;;;;;1.75;60.29;101537.34;5005438;28;20037;-66
2023/02/28 02:22:25;;;;;;;14.10;7.15;;;;;;;1.76;59.89;101536.41;5004888;28;20092;-66
2023/02/28 02:25:18;;;;;;;12.48;7.53;;;;;;;1.62;59.87;101518.34;5004002;28;20069;-65
2023/02/28 02:28:02;;;;;;;11.30;7.07;;;;;;;1.77;60.46;101530.19;5004829;28;20037;-66
2023/02/28 02:30:39;;;;;;;;;;;;;;;1.77;59.99;101538.13;5006384;28;20022;-66
2023/02/28 02:33:14;;;;;;;14.93;7.88;;;;;;;1.79;60.24;101528.38;5006197;28;19913;-66
2023/02/28 02:36:05;;;;;;;15.00;7.53;;;;;;;1.70;60.05;101508.41;5005417;28;20044;-66
2023/02/28 02:38:56;;;;;;;13.48;7.78;;;;;;;1.75;60.48;101530.28;5004634;28;20038;-66
2023/02/28 02:41:35;;;;;;;13.90;7.60;;;;;;;1.70;60.46;101518.97;5005864;28;20046;-66
2023/02/28 02:44:06;;;;;;;12.18;7.03;;;;;;;1.76;60.38;101536.41;5005413;28;20036;-65
2023/02/28 02:46:32;;;;;;;12.45;6.93;;;;;;;1.75;60.53;101535.56;5005398;28;20109;-65
2023/02/28 02:49:00;;;;;;;15.43;7.88;;;;;;;1.64;60.33;101515.66;5005327;28;20113;-66
2023/02/28 02:51:30;;;;;;;12.75;6.90;;;;;;;1.75;60.43;101540.84;5005136;28;20988;-65
2023/02/28 02:54:08;;;;;;;14.07;6.95;;;;;;;1.69;60.21;101524.31;5005070;28;20021;-72
2023/02/28 02:56:35;;;;;;;13.93;7.20;;;;;;;1.70;59.95;101529.53;5004091;28;20033;-72
2023/02/28 02:59:07;;;;;;;11.00;6.47;;;;;;;1.60;59.98;101519.31;5009744;28;20553;-72
2023/02/28 03:01:36;;;;;;;15.15;6.65;;;;;;;1.66;60.30;101529.69;5013125;28;20027;-66
2023/02/28 03:04:05;;;;;;;11.82;7.53;;;;;;;1.69;60.75;101532.25;5009735;28;20021;-66
2023/02/28 03:06:31;;;;;;;12.55;6.57;;;;;;;1.64;60.62;101528.88;5010351;28;20160;-66
2023/02/28 03:08:57;;;;;;;15.07;7.05;;;;;;;1.63;60.51;101527.16;5008050;28;20569;-66
2023/02/28 03:11:22;;;;;;;17.10;7.68;;;;;;;1.69;60.77;101538.41;5007160;28;20034;-66
2023/02/28 03:13:55;;;;;;;12.95;7.45;;;;;;;1.67;61.23;101527.00;5010530;28;20037;-66
2023/02/28 03:16:40;;;;;;;13.73;7.63;;;;;;;1.67;61.87;101520.84;5006389;28;20033;-66
2023/02/28 03:19:21;;;;;;;11.98;7.85;;;;;;;1.71;62.02;101530.44;5006834;28;20065;-66
2023/02/28 03:22:22;;;;;;;11.65;6.60;;;;;;;1.56;63.12;101515.91;5008345;28;20077;-66
2023/02/28 03:25:06;;;;;;;12.02;6.60;;;;;;;1.59;63.04;101522.88;4944998;28;20488;-65
2023/02/28 03:27:39;;;;;;;14.77;7.05;;;;;;;1.54;63.80;101517.72;5004918;28;20416;-67
2023/02/28 03:30:17;;;;;;;12.18;7.03;;;;;;;1.49;63.96;101516.16;5004925;28;20021;-65
2023/02/28 03:32:56;;;;;;;10.95;6.82;;;;;;;1.43;64.10;101495.19;5003618;28;20120;-66
2023/02/28 03:35:25;;;;;;;21.23;8.18;;;;;;;1.46;64.38;101501.28;5003700;28;20562;-65
2023/02/28 03:37:58;;;;;;;15.65;7.13;;;;;;;1.47;65.17;101510.91;5003524;28;20057;-64
2023/02/28 03:40:30;;;;;;;13.63;7.00;;;;;;;1.43;65.15;101509.28;5002928;28;20064;-65
2023/02/28 03:43:03;;;;;;;14.55;7.45;;;;;;;1.28;65.51;101482.47;5002729;28;20033;-66
2023/02/28 03:45:33;;;;;;;12.90;7.13;;;;;;;1.43;65.70;101509.28;5000988;28;20029;-66
2023/02/28 03:48:06;;;;;;;12.18;6.88;;;;;;;1.09;65.99;101446.97;5005921;28;20099;-66
2023/02/28 03:50:39;;;;;;;14.90;7.82;;;;;;;1.38;66.12;101503.28;5008068;28;20141;-72
2023/02/28 03:53:14;;;;;;;14.40;8.05;;;;;;;1.39;66.39;101496.22;5007196;28;20034;-72
2023/02/28 03:55:44;;;;;;;12.93;8.35;;;;;;;1.40;66.08;101496.16;5006181;28;20018;-72
2023/02/28 03:58:22;;;;;;;13.05;7.18;;;;;;;1.38;66.72;101495.34;5004347;28;20033;-72
2023/02/28 04:00:52;;;;;;;13.43;7.55;;;;;;;1.31;66.19;101485.88;5005176;28;20038;-72
2023/02/28 04:03:18;;;;;;;12.13;6.97;;;;;;;1.31;66.76;101496.44;5006542;28;20056;-72
2023/02/28 04:05:53;;;;;;;13.82;6.80;;;;;;;1.38;66.53;101505.91;5010263;28;20038;-72
2023/02/28 04:08:18;;;;;;;12.93;7.03;;;;;;;1.28;66.66;101485.09;5008862;28;20404;-67
2023/02/28 04:10:48;;;;;;;13.30;6.45;;;;;;;1.40;67.03;101505.88;5005743;28;20091;-72
2023/02/28 04:13:13;;;;;;;14.15;7.13;;;;;;;1.39;67.39;101506.78;5004983;28;20049;-70
2023/02/28 04:15:39;;;;;;;15.07;6.97;;;;;;;1.38;67.71;101515.63;5001995;28;20025;-71
2023/02/28 04:18:04;;;;;;;12.30;6.80;;;;;;;1.40;68.17;101512.03;5004652;28;20041;-71
2023/02/28 04:20:30;;;;;;;12.52;7.35;;;;;;;1.35;68.07;101506.00;5005063;28;20033;-72
2023/02/28 04:22:55;;;;;;;14.15;7.90;;;;;;;1.38;68.42;101515.63;5002294;28;20133;-66
2023/02/28 04:25:20;;;;;;;11.95;6.28;;;;;;;1.34;68.27;101506.06;5006051;28;20038;-65
2023/02/28 04:27:46;;;;;;;11.55;6.97;;;;;;;1.37;69.06;101512.13;5002601;28;20166;-72
2023/02/28 04:30:12;;;;;;;12.27;7.05;;;;;;;1.41;69.53;101516.41;5003764;28;20029;-71
2023/02/28 04:32:37;;;;;;;13.35;8.15;;;;;;;1.37;69.13;101512.13;5004881;28;20464;-71
2023/02/28 04:35:03;;;;;;;12.85;7.72;;;;;;;1.35;69.71;101498.06;5003857;28;20042;-72
2023/02/28 04:37:28;;;;;;;14.95;7.68;;;;;;;1.35;70.48;101497.25;5003834;28;20487;-72
2023/02/28 04:39:54;;;;;;;18.75;7.85;;;;;;;1.35;70.54;101495.44;5006661;28;20049;-72
2023/02/28 04:42:20;;;;;;;13.98;8.07;;;;;;;1.34;71.05;101498.13;5008590;28;20026;-72
2023/02/28 04:44:45;;;;;;;15.73;7.68;;;;;;;1.31;71.54;101488.53;5008400;28;20116;-72
2023/02/28 04:47:10;;;;;;;14.05;7.93;;;;;;;1.36;71.38;101497.16;5008970;28;20038;-72
2023/02/28 04:49:36;;;;;;;15.65;7.68;;;;;;;1.32;71.52;101495.53;5006992;28;20124;-72
2023/02/28 04:52:02;;;;;;;14.43;7.90;;;;;;;1.32;71.18;101490.25;5008223;28;20471;-73
2023/02/28 04:54:28;;;;;;;14.13;7.80;;;;;;;1.33;71.77;101502.56;5008179;28;20017;-73
2023/02/28 04:56:54;;;;;;;13.27;8.48;;;;;;;1.28;72.32;101500.97;5008210;28;20049;-72
2023/02/28 04:59:20;;;;;;;14.75;8.05;;;;;;;1.32;72.30;101500.81;5008182;28;20113;-71
2023/02/28 05:01:47;;;;;;;14.65;8.35;;;;;;;1.33;72.19;101496.41;5007739;28;20440;-71
2023/02/28 05:04:13;;;;;;;14.40;7.78;;;;;;;1.26;72.19;101482.50;5008476;28;20113;-72
2023/02/28 05:06:38;;;;;;;14.13;8.52;;;;;;;1.37;72.27;101496.28;5007968;28;20121;-72
2023/02/28 05:09:04;;;;;;;15.20;7.70;;;;;;;1.22;71.71;101483.53;5008475;28;20795;-65
2023/02/28 05:11:34;;;;;;;16.23;7.93;;;;;;;1.33;71.73;101499.94;5007422;28;20480;-65
2023/02/28 05:14:10;;;;;;;13.02;7.57;;;;;;;1.33;71.84;101509.63;5003663;28;20030;-65
2023/02/28 05:16:36;;;;;;;11.57;7.57;;;;;;;1.22;71.88;101485.28;5006337;28;20029;-65
2023/02/28 05:19:02;;;;;;;17.80;8.35;;;;;;;1.31;71.48;101509.66;5006876;28;20026;-65
2023/02/28 05:21:33;;;;;;;13.55;8.23;;;;;;;1.20;71.06;101480.09;5006649;28;20037;-65
2023/02/28 05:24:01;;;;;;;15.68;9.02;;;;;;;1.29;71.10;101497.44;5006889;28;20060;-72
2023/02/28 05:26:27;;;;;;;15.95;8.55;;;;;;;1.33;71.17;101506.97;5006713;28;20048;-72
2023/02/28 05:28:54;;;;;;;16.80;8.93;;;;;;;1.34;70.94;101511.34;5006074;28;20030;-72
2023/02/28 05:31:19;;;;;;;20.10;8.50;;;;;;;1.31;70.77;101514.94;5007797;28;20026;-73
2023/02/28 05:33:45;;;;;;;15.48;8.30;;;;;;;1.34;70.93;101509.56;5007395;28;20034;-72
2023/02/28 05:36:10;;;;;;;15.27;8.13;;;;;;;1.35;70.52;101508.66;5007347;28;20679;-71
2023/02/28 05:38:36;;;;;;;15.85;9.15;;;;;;;1.37;70.84;101522.69;5007351;28;20038;-72
2023/02/28 05:41:09;;;;;;;16.92;9.00;;;;;;;1.34;70.64;101513.97;5005545;28;20278;-72
2023/02/28 05:43:35;;;;;;;16.60;9.30;;;;;;;1.41;70.29;101524.31;5006062;28;21282;-72
2023/02/28 05:46:04;;;;;;;13.90;8.43;;;;;;;1.40;69.97;101522.59;5006681;28;20034;-73
2023/02/28 05:48:29;;;;;;;16.55;8.30;;;;;;;1.42;69.70;101528.69;5006809;28;20068;-72
2023/02/28 05:50:54;;;;;;;16.40;8.10;;;;;;;1.37;69.78;101520.06;5006692;28;20421;-73
2023/02/28 05:53:20;;;;;;;16.63;8.85;;;;;;;1.43;69.96;101526.91;5007125;28;20026;-72
2023/02/28 05:55:46;;;;;;;13.73;8.60;;;;;;;1.43;69.31;101540.13;5006301;28;20116;-72
2023/02/28 05:58:11;;;;;;;18.70;9.10;;;;;;;1.46;69.03;101551.50;5007076;28;20037;-71
2023/02/28 06:00:37;;;;;;;13.80;8.38;;;;;;;1.38;69.28;101548.19;5007207;28;20014;-73
2023/02/28 06:03:02;;;;;;;13.98;7.57;;;;;;;1.45;68.87;101551.53;5005418;28;20092;-72
2023/02/28 06:05:28;;;;;;;15.65;8.77;;;;;;;1.39;69.11;101549.06;5007253;28;20159;-66
2023/02/28 06:07:53;;;;;;;15.07;9.05;;;;;;;1.45;69.41;101560.31;5005929;28;20850;-65
2023/02/28 06:10:19;;;;;;;14.27;8.07;;;;;;;1.37;69.31;101546.47;5006147;28;20126;-65
2023/02/28 06:12:45;;;;;;;15.57;8.88;;;;;;;1.48;69.38;101560.22;5005641;28;20116;-65
2023/02/28 06:15:14;;;;;;;17.67;8.40;;;;;;;1.44;69.60;101539.22;5005455;28;20026;-65
2023/02/28 06:17:41;;;;;;;15.95;8.48;;;;;;;1.38;69.94;101526.19;5003650;28;20477;-65
2023/02/28 06:20:08;;;;;;;14.82;8.45;;;;;;;1.49;69.76;101547.88;5004610;28;20762;-66
2023/02/28 06:22:35;;;;;;;15.10;8.60;;;;;;;1.47;69.82;101532.06;5004045;28;20050;-66
2023/02/28 06:25:00;;;;;;;16.80;8.50;;;;;;;1.42;69.83;101531.31;5003663;28;20045;-66
2023/02/28 06:27:26;;;;;;;16.17;9.63;;;;;;;1.51;69.76;101528.41;5005364;28;20466;-66
2023/02/28 06:29:55;;;;;;;17.17;9.10;;;;;;;1.50;70.22;101529.31;5006283;28;20099;-72
2023/02/28 06:32:21;;;;;;;17.83;9.15;;;;;;;1.61;70.52;101563.38;5006370;28;20018;-72
2023/02/28 06:34:47;;;;;;;18.48;9.43;;;;;;;1.62;70.61;101555.34;5003116;28;20034;-72
2023/02/28 06:37:12;;;;;;;16.25;8.60;;;;;;;1.66;70.53;101559.66;5006291;28;20656;-72
2023/02/28 06:39:38;;;;;;;16.23;9.30;;;;;;;1.61;70.73;101556.28;5009281;28;20064;-72
2023/02/28 06:42:03;;;;;;;15.05;8.55;;;;;;;1.70;70.87;101566.56;5003131;28;20045;-73
2023/02/28 06:44:34;;;;;;;13.98;8.85;;;;;;;1.66;70.34;101558.78;5005280;28;20108;-74
2023/02/28 06:47:04;;;;;;;15.10;7.78;;;;;;;1.71;70.82;101562.16;5003183;28;20021;-72
2023/02/28 06:49:35;;;;;;;15.60;8.43;;;;;;;1.66;70.40;101553.50;5004300;28;20442;-67
2023/02/28 06:52:00;;;;;;;14.10;7.35;;;;;;;1.77;70.54;101573.38;5003377;28;20026;-66
2023/02/28 06:54:27;;;;;;;15.82;8.77;;;;;;;1.69;70.20;101571.91;5003714;28;20487;-66
2023/02/28 06:56:54;;;;;;;15.15;8.30;;;;;;;1.76;70.42;101584.88;5003362;28;20057;-66
2023/02/28 06:59:20;;;;;;;13.82;8.57;;;;;;;1.73;70.74;101570.88;5002131;28;20025;-67
2023/02/28 07:01:46;;;;;;;15.88;9.10;;;;;;;1.73;71.13;101571.75;5002427;28;20048;-67
2023/02/28 07:04:12;;;;;;;13.82;8.55;;;;;;;1.67;70.47;101561.38;5003135;28;20033;-66
2023/02/28 07:06:38;;;;;;;18.35;9.13;;;;;;;1.74;70.03;101559.41;5004168;28;20026;-73
2023/02/28 07:09:03;;;;;;;15.90;8.88;;;;;;;1.91;70.57;101587.03;5002621;28;20076;-73
2023/02/28 07:11:29;;;;;;;15.38;8.98;;;;;;;1.89;70.47;101580.94;5002551;28;20041;-73
2023/02/28 07:13:56;;;;;;;17.90;9.55;;;;;;;1.88;69.63;101576.56;5006248;28;20030;-71
2023/02/28 07:16:22;;;;;;;17.17;9.35;;;;;;;1.97;70.08;101586.84;5007123;28;20080;-72
2023/02/28 07:18:48;;;;;;;16.95;9.05;;;;;;;1.90;69.49;101577.38;5002794;28;20506;-73
2023/02/28 07:21:15;;;;;;;13.63;8.07;;;;;;;1.99;69.59;101592.94;5008105;28;20491;-72
2023/02/28 07:23:41;;;;;;;14.93;8.25;;;;;;;2.10;69.21;101597.91;5009368;28;20042;-73
2023/02/28 07:26:12;;;;;;;15.18;8.55;;;;;;;2.10;69.05;101595.25;5006362;28;20369;-73
2023/02/28 07:28:38;;;;;;;13.05;8.07;;;;;;;2.16;69.25;101605.63;5006281;28;20034;-73
2023/02/28 07:31:07;;;;;;;17.45;8.68;;;;;;;2.01;68.73;101566.44;5007422;28;20083;-72
2023/02/28 07:33:33;;;;;;;16.55;9.15;;;;;;;2.16;68.77;101600.34;5006976;28;20121;-73
2023/02/28 07:36:07;;;;;;;24.85;9.13;;;;;;;2.14;68.37;101575.69;5004952;28;20025;-74
2023/02/28 07:38:37;;;;;;;16.10;9.13;;;;;;;2.18;68.36;101569.38;5004891;28;20053;-73
2023/02/28 07:41:06;;;;;;;15.25;9.27;;;;;;;2.33;68.50;101604.13;5003844;28;20096;-74
2023/02/28 07:43:32;;;;;;;19.88;9.50;;;;;;;2.34;68.18;101591.78;5004192;28;20045;-73
2023/02/28 07:46:06;;;;;;;16.88;8.80;;;;;;;2.45;68.39;101594.06;5005479;28;20481;-72
2023/02/28 07:48:31;;;;;;;;;;;;;;;2.43;68.34;101581.72;5006322;28;20084;-74
2023/02/28 07:50:58;;;;;;;14.52;9.40;;;;;;;2.50;67.24;101586.81;5003825;28;19913;-73
2023/02/28 07:53:24;;;;;;;16.98;8.38;;;;;;;2.54;67.22;101584.00;5005750;28;20490;-73
2023/02/28 07:55:49;;;;;;;16.13;8.65;;;;;;;2.51;67.04;101584.09;5003752;28;20064;-71
2023/02/28 07:58:15;;;;;;;14.02;8.43;;;;;;;2.55;66.95;101580.47;5005942;28;20094;-73
2023/02/28 08:00:40;;;;;;;15.27;7.78;;;;;;;2.55;66.61;101575.16;5005236;28;20018;-73
2023/02/28 08:03:06;;;;;;;16.65;8.85;;;;;;;2.68;67.02;101599.41;5003536;28;20029;-73
2023/02/28 08:05:31;;;;;;;16.13;9.07;;;;;;;2.56;66.88;101573.34;5005254;28;20029;-73
2023/02/28 08:07:57;;;;;;;12.57;8.40;;;;;;;2.71;66.77;101586.91;5004335;28;20664;-73
2023/02/28 08:10:23;;;;;;;18.33;9.13;;;;;;;2.76;66.80;101584.09;5004799;28;20034;-73
2023/02/28 08:12:49;;;;;;;13.65;7.95;;;;;;;2.80;66.34;101588.41;5004908;28;20106;-73
2023/02/28 08:15:14;;;;;;;13.32;8.52;;;;;;;2.76;66.67;101581.47;5008222;28;20029;-72
2023/02/28 08:17:40;;;;;;;14.23;8.43;;;;;;;2.87;66.16;101593.41;5008560;28;20076;-73
2023/02/28 08:20:06;;;;;;;14.68;9.00;;;;;;;2.93;66.10;101592.34;5009075;28;20029;-72
2023/02/28 08:22:31;;;;;;;18.02;9.43;;;;;;;2.90;66.15;101585.34;5009109;28;20643;-73
2023/02/28 08:24:57;;;;;;;15.63;8.35;;;;;;;2.94;66.43;101580.81;5006600;28;20040;-73
2023/02/28 08:27:22;;;;;;;15.32;8.65;;;;;;;2.93;66.33;101573.78;5008845;28;20044;-73
2023/02/28 08:29:48;;;;;;;15.70;8.35;;;;;;;3.08;65.76;101597.06;5006395;28;20026;-72
2023/02/28 08:32:13;;;;;;;15.68;8.30;;;;;;;3.09;65.20;101593.50;5007701;28;20034;-72
2023/02/28 08:34:40;;;;;;;16.23;8.93;;;;;;;3.15;65.32;101594.13;5008053;28;20040;-73
2023/02/28 08:37:05;;;;;;;15.52;8.10;;;;;;;3.07;65.41;101572.38;5007217;28;20029;-73
2023/02/28 08:39:35;;;;;;;14.57;8.50;;;;;;;3.09;65.64;101578.44;5008558;28;20030;-73
2023/02/28 08:42:00;;;;;;;15.75;8.65;;;;;;;3.30;65.70;101601.53;5008556;28;20096;-72
2023/02/28 08:44:27;;;;;;;18.08;8.52;;;;;;;3.28;65.11;101600.69;5007230;28;20063;-73
2023/02/28 08:46:52;;;;;;;14.95;9.38;;;;;;;3.34;65.16;101594.28;5006916;28;20124;-74
2023/02/28 08:49:18;;;;;;;15.90;9.48;;;;;;;3.33;65.23;101579.31;5009097;28;20109;-73
2023/02/28 08:51:44;;;;;;;15.65;9.00;;;;;;;3.39;65.44;101587.88;5009195;28;20038;-73
2023/02/28 08:54:12;;;;;;;16.20;9.38;;;;;;;3.46;65.28;101593.84;5008397;28;20053;-73
2023/02/28 08:56:38;;;;;;;13.65;8.75;;;;;;;3.49;64.99;101589.28;5008356;28;20036;-73
2023/02/28 08:59:04;;;;;;;14.88;8.40;;;;;;;3.52;64.92;101589.16;5007465;28;20462;-73
2023/02/28 09:01:31;;;;;;;14.95;8.32;;;;;;;3.54;64.87;101573.16;5006530;28;20053;-73
2023/02/28 09:03:57;;;;;;;14.65;8.82;;;;;;;3.61;64.89;101574.69;5008117;28;20034;-72
2023/02/28 09:06:25;;;;;;;15.52;8.85;;;;;;;3.64;64.64;101580.72;5008259;28;20096;-72
2023/02/28 09:08:51;;;;;;;15.63;9.20;;;;;;;3.58;65.19;101554.44;5006485;28;20106;-73
2023/02/28 09:11:18;;;;;;;13.13;9.43;;;;;;;3.69;65.02;101581.41;5008683;28;20619;-74
2023/02/28 09:13:44;;;;;;;16.77;9.35;;;;;;;3.74;64.80;101586.53;5005243;28;20076;-73
2023/02/28 09:16:12;;;;;;;14.35;9.20;;;;;;;3.76;64.95;101579.38;5007557;28;20060;-73
2023/02/28 09:18:38;;;;;;;16.38;9.73;;;;;;;3.74;64.84;101582.06;5008163;28;20030;-73
2023/02/28 09:21:14;;;;;;;15.15;8.57;;;;;;;3.82;64.60;101582.66;5007633;28;20460;-71
2023/02/28 09:23:40;;;;;;;15.60;9.27;;;;;;;3.87;64.76;101590.44;5005361;28;20042;-73
2023/02/28 09:26:06;;;;;;;18.35;10.18;;;;;;;3.87;65.04;101585.97;5007751;28;20036;-72
2023/02/28 09:28:32;;;;;;;16.38;9.77;;;;;;;3.88;65.05;101600.13;5007308;28;20046;-72
2023/02/28 09:30:58;;;;;;;16.33;9.45;;;;;;;3.91;64.43;101592.91;5009199;28;20134;-73
2023/02/28 09:33:25;;;;;;;18.27;10.07;;;;;;;3.91;64.75;101592.03;5009023;28;20439;-73
2023/02/28 09:35:56;;;;;;;16.00;8.75;;;;;;;3.95;64.65;101589.19;5008533;28;20022;-72
2023/02/28 09:38:22;;;;;;;16.80;10.23;;;;;;;3.91;64.96;101584.06;5009443;28;20022;-73
2023/02/28 09:40:47;;;;;;;15.20;9.35;;;;;;;4.07;64.54;101606.41;5008076;28;20060;-72
2023/02/28 09:43:15;;;;;;;14.88;9.65;;;;;;;4.07;64.66;101609.06;5007935;28;20041;-72
2023/02/28 09:45:44;;;;;;;14.57;8.98;;;;;;;4.12;64.59;101609.72;5007629;28;20112;-72
2023/02/28 09:48:25;;;;;;;14.95;8.93;;;;;;;4.12;64.97;101607.94;5007766;28;20033;-72
2023/02/28 09:50:55;;;;;;;16.52;9.27;;;;;;;4.11;64.71;101608.00;5007831;28;20384;-66
2023/02/28 09:53:39;;;;;;;16.98;9.30;;;;;;;4.10;64.94;101590.38;5006940;28;20498;-66
2023/02/28 09:56:11;;;;;;;15.20;9.75;;;;;;;4.17;65.02;101592.69;5004860;28;20087;-67
2023/02/28 09:58:39;;;;;;;13.00;8.95;;;;;;;4.24;64.91;101591.53;5005980;28;20034;-73
2023/02/28 10:01:08;;;;;;;17.38;10.63;;;;;;;4.28;64.77;101581.63;5004638;28;20037;-73
2023/02/28 10:03:40;;;;;;;18.58;11.25;;;;;;;4.29;64.79;101586.88;5007190;28;20063;-73
2023/02/28 10:06:20;;;;;;;17.95;10.82;;;;;;;4.37;65.16;101582.09;5006694;28;20034;-73
2023/02/28 10:09:10;;;;;;;16.40;9.95;;;;;;;4.33;64.96;101579.63;5003635;28;20072;-72
2023/02/28 10:11:38;;;;;;;16.40;10.32;;;;;;;4.40;65.07;101583.75;5005332;28;20070;-74
2023/02/28 10:14:18;;;;;;;17.42;10.60;;;;;;;4.39;65.07;101580.22;5006875;28;20064;-73
2023/02/28 10:17:16;;;;;;;16.90;10.65;;;;;;;4.48;64.70;101587.81;5007106;28;20043;-73
2023/02/28 10:19:50;;;;;;;21.08;10.80;;;;;;;4.54;64.76;101581.38;4984387;28;20261;-73
2023/02/28 10:22:26;;;;;;;19.58;10.77;;;;;;;4.62;64.49;101587.22;5006612;28;20065;-73
2023/02/28 10:24:53;;;;;;;21.75;11.52;;;;;;;4.56;64.37;101575.09;5006803;28;20369;-73
2023/02/28 10:27:30;;;;;;;18.58;11.80;;;;;;;4.64;64.31;101586.22;5007246;28;20026;-74
2023/02/28 10:30:01;;;;;;;15.85;10.70;;;;;;;4.73;64.22;101584.97;5004495;28;20099;-74
2023/02/28 10:32:33;;;;;;;18.33;11.45;;;;;;;4.69;64.15;101583.38;5007025;28;20029;-74
2023/02/28 10:35:17;;;;;;;16.80;9.80;;;;;;;4.68;64.21;101589.63;5004932;28;20040;-74
2023/02/28 10:37:45;;;;;;;15.70;8.73;;;;;;;4.71;63.98;101581.53;5005339;28;20033;-73
2023/02/28 10:40:22;;;;;;;16.42;10.18;;;;;;;4.70;64.51;101583.31;5006714;28;20037;-73
2023/02/28 10:43:13;;;;;;;18.13;10.32;;;;;;;4.73;64.88;101590.28;5004963;28;20042;-73
2023/02/28 10:45:39;;;;;;;15.32;9.65;;;;;;;4.67;64.45;101564.84;5006203;28;20542;-73
2023/02/28 10:48:13;;;;;;;19.05;10.88;;;;;;;4.80;64.16;101582.91;5006473;28;20395;-74
2023/02/28 10:50:50;;;;;;;18.08;10.52;;;;;;;4.84;64.21;101574.75;5006917;28;20029;-74
2023/02/28 10:53:24;;;;;;;22.98;10.90;;;;;;;4.95;64.53;101580.44;5005251;28;20069;-73
2023/02/28 10:55:57;;;;;;;;;;;;;;;4.99;63.99;101574.03;5006793;28;20431;-74
2023/02/28 10:58:24;;;;;;;17.83;10.82;;;;;;;4.95;63.98;101572.44;5007109;28;19995;-73
2023/02/28 11:00:52;;;;;;;18.90;10.70;;;;;;;5.02;63.68;101581.00;5006271;28;20060;-74
2023/02/28 11:03:35;;;;;;;17.83;11.23;;;;;;;4.95;63.84;101568.91;5004304;28;20039;-73
2023/02/28 11:06:13;;;;;;;19.73;10.95;;;;;;;5.10;63.35;101574.44;5005051;28;20104;-73
2023/02/28 11:09:14;;;;;;;19.05;11.65;;;;;;;5.13;63.80;101578.75;5006584;28;20040;-74
2023/02/28 11:11:46;;;;;;;20.15;11.98;;;;;;;5.16;63.73;101582.09;5004935;28;20111;-74
2023/02/28 11:14:35;;;;;;;17.52;11.13;;;;;;;5.15;63.48;101577.72;5006685;28;20117;-75
2023/02/28 11:17:15;;;;;;;16.60;10.48;;;;;;;5.13;63.36;101560.13;5004218;28;20033;-74
2023/02/28 11:19:46;;;;;;;18.13;11.35;;;;;;;5.19;63.78;101568.66;5005591;28;20032;-74
2023/02/28 11:22:19;;;;;;;19.70;10.35;;;;;;;5.26;62.90;101553.31;5004646;28;20141;-74
2023/02/28 11:24:50;;;;;;;19.30;11.90;;;;;;;5.19;63.09;101559.84;5004184;28;20369;-74
2023/02/28 11:27:31;;;;;;;15.45;10.48;;;;;;;5.15;63.54;101559.13;5004762;28;20045;-74
2023/02/28 11:29:58;;;;;;;15.27;9.90;;;;;;;5.16;63.50;101547.53;5006831;28;20472;-75
2023/02/28 11:32:28;;;;;;;19.40;10.63;;;;;;;5.14;63.43;101528.16;5006940;28;20507;-67
2023/02/28 11:35:16;;;;;;;19.90;10.70;;;;;;;5.15;63.18;101527.22;5005268;28;20068;-74